Time;durP1;ratioP1;P1;durP2;ratioP2;P2;SDS_P1;SDS_P2;PMS_P1;PMS_P2;Temp;Humidity;BMP_temperature;BMP_pressure;BME280_temperature;BME280_humidity;BME280_pressure;Samples;Min_cycle;Max_cycle;Signal;HPM_P1;HPM_P2
2023/10/15 00:01:27;;;;;;;0.20;0.20;;;;;;;15.69;61.15;101752.19;5089114;28;20041;-64
2023/10/15 00:03:53;;;;;;;0.32;0.32;;;;;;;15.09;63.06;101748.00;5089062;28;20457;-65
2023/10/15 00:06:18;;;;;;;0.20;0.20;;;;;;;14.56;65.16;101746.09;5089619;28;20031;-65
2023/10/15 00:08:43;;;;;;;0.30;0.30;;;;;;;14.91;64.26;101748.91;5089110;28;20120;-64
2023/10/15 00:11:13;;;;;;;0.30;0.30;;;;;;;14.92;64.46;101751.38;5089288;28;20044;-65
2023/10/15 00:13:38;;;;;;;0.30;0.30;;;;;;;14.56;65.30;101748.81;5052464;28;20091;-64
2023/10/15 00:16:04;;;;;;;0.20;0.20;;;;;;;14.80;63.91;101752.44;5068714;28;20115;-64
2023/10/15 00:18:30;;;;;;;0.40;0.40;;;;;;;15.29;62.56;101748.53;5068737;28;20510;-64
2023/10/15 00:21:01;;;;;;;0.50;0.50;;;;;;;15.42;62.24;101743.75;5069562;28;20030;-64
2023/10/15 00:23:28;;;;;;;;;;;;;;;14.50;65.13;101744.31;5069303;28;20102;-64
2023/10/15 00:25:54;;;;;;;0.28;0.28;;;;;;;13.97;68.10;101743.28;5068814;28;20351;-63
2023/10/15 00:28:19;;;;;;;0.35;0.35;;;;;;;14.95;64.40;101748.22;5068629;28;20028;-64
2023/10/15 00:30:45;;;;;;;0.15;0.15;;;;;;;14.30;66.07;101743.75;5050951;28;20047;-64
2023/10/15 00:33:11;;;;;;;0.30;0.30;;;;;;;14.29;66.13;101746.69;5070572;28;20213;-63
2023/10/15 00:35:37;;;;;;;0.20;0.20;;;;;;;14.15;67.56;101743.28;5072262;28;20131;-64
2023/10/15 00:38:16;;;;;;;0.28;0.28;;;;;;;14.67;64.68;101747.19;5072614;28;20135;-64
2023/10/15 00:40:42;;;;;;;0.30;0.30;;;;;;;14.95;63.31;101742.81;5072530;28;20403;-63
2023/10/15 00:43:08;;;;;;;0.40;0.40;;;;;;;14.45;65.11;101743.31;5072531;28;20143;-63
2023/10/15 00:45:45;;;;;;;0.30;0.30;;;;;;;14.47;65.27;101760.16;5072663;28;20039;-63
2023/10/15 00:48:33;;;;;;;0.20;0.20;;;;;;;14.98;64.71;101773.19;5072173;28;20040;-64
2023/10/15 00:51:08;;;;;;;0.30;0.30;;;;;;;14.71;65.62;101778.97;5072775;28;20128;-65
2023/10/15 00:53:34;;;;;;;0.30;0.30;;;;;;;15.44;61.25;101776.00;5072199;28;20044;-64
2023/10/15 00:56:04;;;;;;;0.30;0.30;;;;;;;15.70;61.33;101756.56;5072007;28;20045;-64
2023/10/15 00:58:32;;;;;;;0.30;0.30;;;;;;;15.87;60.08;101737.69;5083376;28;20086;-64
2023/10/15 01:01:21;;;;;;;0.10;0.10;;;;;;;15.92;58.98;101743.25;5092382;28;20306;-64
2023/10/15 01:03:58;;;;;;;0.40;0.40;;;;;;;16.27;58.98;101733.97;5092154;28;20610;-64
2023/10/15 01:09:19;;;;;;;0.20;0.20;;;;;;;16.01;58.37;101747.22;5092907;28;20552;-64
2023/10/15 01:11:55;;;;;;;0.20;0.20;;;;;;;15.93;59.45;101739.44;5089806;28;20440;-65
2023/10/15 01:14:55;;;;;;;0.43;0.43;;;;;;;14.93;62.48;101746.81;5071881;28;20040;-64
2023/10/15 01:17:13;;;;;;;0.30;0.30;;;;;;;14.80;62.56;101718.06;5068364;28;20091;-64
2023/10/15 01:19:39;;;;;;;0.30;0.30;;;;;;;14.21;65.14;101701.00;5071599;28;20056;-64
2023/10/15 01:22:08;;;;;;;0.22;0.22;;;;;;;14.63;64.20;101695.44;5071663;28;20462;-65
2023/10/15 01:24:36;;;;;;;0.30;0.30;;;;;;;14.42;64.94;101706.78;5071789;28;20028;-63
2023/10/15 01:27:09;;;;;;;0.40;0.40;;;;;;;14.26;64.23;101709.25;5072535;28;20032;-64
2023/10/15 01:29:42;;;;;;;0.30;0.30;;;;;;;14.75;64.15;101717.94;5072679;28;20112;-64
2023/10/15 01:32:30;;;;;;;0.30;0.30;;;;;;;14.47;64.28;101728.53;5086328;28;20512;-64
2023/10/15 01:34:59;;;;;;;0.35;0.35;;;;;;;14.08;66.26;101742.53;5071466;28;20493;-64
2023/10/15 01:37:25;;;;;;;0.47;0.47;;;;;;;13.88;66.48;101742.75;5071582;28;20036;-64
2023/10/15 01:40:24;;;;;;;0.20;0.20;;;;;;;13.82;66.69;101740.94;5071309;28;20051;-63
2023/10/15 01:42:53;;;;;;;0.20;0.20;;;;;;;13.86;64.44;101744.84;5070994;28;20032;-62
2023/10/15 01:45:30;;;;;;;0.30;0.30;;;;;;;13.71;66.46;101739.00;5071592;28;20369;-64
2023/10/15 01:48:05;;;;;;;0.28;0.28;;;;;;;13.55;67.63;101738.75;5065148;28;20075;-67
2023/10/15 01:50:49;;;;;;;0.40;0.40;;;;;;;14.06;66.18;101739.22;5071091;28;20033;-64
2023/10/15 01:53:15;;;;;;;0.25;0.25;;;;;;;14.91;62.77;101749.75;5071162;28;20350;-64
2023/10/15 01:55:52;;;;;;;0.32;0.32;;;;;;;14.30;63.46;101745.63;5053043;28;20502;-64
2023/10/15 01:58:19;;;;;;;0.50;0.50;;;;;;;13.04;66.91;101733.59;5070342;28;20044;-63
2023/10/15 02:00:44;;;;;;;0.30;0.30;;;;;;;14.20;65.21;101734.47;5070860;28;20427;-63
2023/10/15 02:03:11;;;;;;;0.30;0.30;;;;;;;13.55;65.99;101727.94;5071208;28;20024;-64
2023/10/15 02:05:42;;;;;;;0.40;0.40;;;;;;;14.83;63.35;101723.03;5070829;28;20032;-63
2023/10/15 02:08:09;;;;;;;0.40;0.40;;;;;;;15.13;60.85;101724.84;5070790;28;20045;-63
2023/10/15 02:10:39;;;;;;;0.25;0.25;;;;;;;14.98;60.81;101726.09;5070716;28;20054;-64
2023/10/15 02:13:08;;;;;;;0.25;0.25;;;;;;;14.21;63.44;101734.25;5070379;28;20036;-62
2023/10/15 02:15:41;;;;;;;0.38;0.38;;;;;;;13.91;64.77;101736.91;5070836;28;20063;-64
2023/10/15 02:18:14;;;;;;;0.40;0.40;;;;;;;14.34;63.49;101744.94;5071199;28;20085;-62
2023/10/15 02:23:19;;;;;;;0.22;0.22;;;;;;;13.89;65.50;101784.94;5070445;28;20062;-63
2023/10/15 02:25:58;;;;;;;0.13;0.13;;;;;;;14.95;63.57;101799.66;5070430;28;20474;-63
2023/10/15 02:28:27;;;;;;;0.40;0.40;;;;;;;15.84;59.64;101790.50;5085421;28;20032;-64
2023/10/15 02:31:20;;;;;;;0.20;0.20;;;;;;;15.93;59.31;101778.25;5070221;28;20029;-64
2023/10/15 02:33:39;;;;;;;0.20;0.20;;;;;;;16.46;57.55;101759.84;5069496;28;20455;-63
2023/10/15 02:36:09;;;;;;;0.20;0.20;;;;;;;15.74;59.96;101774.00;5070783;28;20024;-63
2023/10/15 02:38:36;;;;;;;0.40;0.40;;;;;;;15.23;61.82;101771.13;5070157;28;20040;-64
2023/10/15 02:41:08;;;;;;;0.25;0.25;;;;;;;15.20;62.12;101753.44;5070068;28;20556;-64
2023/10/15 02:43:36;;;;;;;0.25;0.25;;;;;;;15.13;61.58;101755.44;5070319;28;20477;-65
2023/10/15 02:46:12;;;;;;;0.30;0.30;;;;;;;14.03;65.95;101758.59;5070184;28;20495;-63
2023/10/15 02:48:41;;;;;;;0.30;0.30;;;;;;;14.78;64.78;101752.63;5051949;28;20101;-63
2023/10/15 02:51:08;;;;;;;0.30;0.30;;;;;;;15.60;61.85;101734.66;5070703;28;20059;-63
2023/10/15 02:53:36;;;;;;;0.20;0.20;;;;;;;15.75;60.70;101735.81;5069857;28;20040;-67
2023/10/15 02:56:10;;;;;;;0.40;0.40;;;;;;;15.17;62.94;101744.97;5069095;28;20106;-64
2023/10/15 02:58:36;;;;;;;0.20;0.20;;;;;;;14.53;64.40;101745.72;5069776;28;20550;-64
2023/10/15 03:01:17;;;;;;;0.30;0.30;;;;;;;14.73;63.33;101735.44;5069779;28;20047;-63
2023/10/15 03:03:49;;;;;;;;;;;;;;;14.81;62.76;101735.94;5070074;28;20075;-64
2023/10/15 03:06:18;;;;;;;0.30;0.30;;;;;;;15.14;61.58;101727.31;5068895;28;19961;-64
2023/10/15 03:08:46;;;;;;;0.30;0.30;;;;;;;15.34;60.63;101725.09;5069789;28;20545;-64
2023/10/15 03:11:12;;;;;;;0.30;0.30;;;;;;;14.72;62.34;101731.09;5069796;28;20029;-64
2023/10/15 03:13:53;;;;;;;0.20;0.20;;;;;;;14.69;63.40;101732.38;5069414;28;20043;-64
2023/10/15 03:16:21;;;;;;;0.30;0.30;;;;;;;15.42;61.04;101724.78;5069452;28;20033;-63
2023/10/15 03:18:48;;;;;;;0.30;0.30;;;;;;;15.92;59.13;101727.78;5069608;28;20113;-63
2023/10/15 03:21:25;;;;;;;0.40;0.40;;;;;;;16.05;57.99;101724.81;5069831;28;20078;-64
2023/10/15 03:23:56;;;;;;;0.32;0.32;;;;;;;15.28;60.42;101731.44;5069908;28;20377;-64
2023/10/15 03:26:30;;;;;;;0.43;0.43;;;;;;;15.65;59.28;101732.88;5069303;28;20047;-63
2023/10/15 03:28:58;;;;;;;0.30;0.30;;;;;;;15.98;58.99;101729.53;5069426;28;20036;-64
2023/10/15 03:31:27;;;;;;;0.30;0.30;;;;;;;16.01;58.83;101734.50;5069439;28;20124;-63
2023/10/15 03:36:50;;;;;;;0.40;0.40;;;;;;;16.18;58.99;101748.94;5069131;28;20071;-64
2023/10/15 03:39:53;;;;;;;0.40;0.40;;;;;;;16.44;57.44;101742.97;5069852;28;20361;-64
2023/10/15 03:44:44;;;;;;;0.20;0.20;;;;;;;15.11;62.79;101726.94;5069164;28;20036;-63
2023/10/15 03:47:15;;;;;;;0.30;0.30;;;;;;;14.59;64.15;101737.53;5069224;28;20477;-63
2023/10/15 03:49:43;;;;;;;0.32;0.32;;;;;;;14.35;64.84;101749.28;5068966;28;20569;-65
2023/10/15 03:52:14;;;;;;;0.30;0.30;;;;;;;15.06;62.66;101741.19;5069147;28;20028;-64
2023/10/15 03:54:42;;;;;;;0.20;0.20;;;;;;;14.08;66.05;101756.88;5069007;28;20107;-64
2023/10/15 03:57:08;;;;;;;0.30;0.30;;;;;;;13.88;67.31;101752.72;5069258;28;20036;-64
2023/10/15 03:59:44;;;;;;;0.20;0.20;;;;;;;13.71;68.58;101757.91;5067678;28;20531;-63
2023/10/15 04:02:22;;;;;;;0.30;0.30;;;;;;;13.87;67.08;101770.84;5059612;28;20039;-64
2023/10/15 04:05:00;;;;;;;0.40;0.40;;;;;;;14.10;67.47;101786.38;5046272;28;20114;-64
2023/10/15 04:07:30;;;;;;;0.30;0.30;;;;;;;14.02;67.01;101792.06;5036704;28;20032;-64
2023/10/15 04:10:03;;;;;;;0.20;0.20;;;;;;;14.47;65.75;101785.31;5047226;28;20045;-64
2023/10/15 04:12:29;;;;;;;0.30;0.30;;;;;;;13.75;68.10;101766.38;5045307;28;20438;-65
2023/10/15 04:14:56;;;;;;;0.25;0.25;;;;;;;13.46;69.33;101767.09;5052799;28;20468;-64
2023/10/15 04:17:22;;;;;;;0.20;0.20;;;;;;;13.54;68.09;101764.09;5053086;28;20037;-65
2023/10/15 04:19:47;;;;;;;0.30;0.30;;;;;;;13.85;67.14;101767.53;5052436;28;20049;-65
2023/10/15 04:22:15;;;;;;;0.25;0.25;;;;;;;14.17;66.05;101772.78;5052706;28;20122;-63
2023/10/15 04:24:50;;;;;;;0.25;0.25;;;;;;;13.65;67.81;101779.56;5053024;28;20113;-65
2023/10/15 04:27:16;;;;;;;0.40;0.40;;;;;;;13.82;67.67;101780.63;5053403;28;20036;-64
2023/10/15 04:29:55;;;;;;;0.40;0.40;;;;;;;14.02;65.40;101770.44;5053220;28;20032;-64
2023/10/15 04:32:45;;;;;;;0.40;0.40;;;;;;;14.40;63.73;101778.34;5052962;28;20086;-66
2023/10/15 04:35:18;;;;;;;0.25;0.25;;;;;;;14.21;64.29;101777.50;5052528;28;20033;-64
2023/10/15 04:37:48;;;;;;;0.20;0.20;;;;;;;14.06;64.81;101767.09;5052476;28;20511;-65
2023/10/15 04:40:16;;;;;;;0.20;0.20;;;;;;;14.57;62.89;101763.97;5034004;28;20408;-64
2023/10/15 04:42:51;;;;;;;0.30;0.30;;;;;;;14.70;62.55;101763.78;5052439;28;20122;-65
2023/10/15 04:45:39;;;;;;;0.20;0.20;;;;;;;14.70;62.70;101773.81;5053087;28;20082;-65
2023/10/15 04:48:13;;;;;;;0.20;0.20;;;;;;;15.00;62.06;101784.59;5072731;28;20504;-65
2023/10/15 04:50:38;;;;;;;0.20;0.20;;;;;;;13.94;65.14;101773.44;5072137;28;20407;-74
2023/10/15 04:53:12;;;;;;;0.30;0.30;;;;;;;14.16;64.95;101784.63;5072625;28;20032;-73
2023/10/15 04:55:42;;;;;;;0.20;0.20;;;;;;;14.14;64.73;101782.16;5072836;28;20101;-74
2023/10/15 04:58:09;;;;;;;0.40;0.40;;;;;;;14.80;62.95;101782.19;5071558;28;20048;-74
2023/10/15 05:00:35;;;;;;;0.10;0.10;;;;;;;15.00;60.94;101782.72;5072678;28;20427;-74
2023/10/15 05:03:01;;;;;;;0.40;0.40;;;;;;;15.27;60.42;101781.22;5072886;28;20032;-73
2023/10/15 05:05:26;;;;;;;0.40;0.40;;;;;;;14.61;62.89;101783.28;5072214;28;20090;-73
2023/10/15 05:07:57;;;;;;;0.32;0.32;;;;;;;15.15;60.56;101774.16;5072152;28;20127;-73
2023/10/15 05:10:23;;;;;;;0.30;0.30;;;;;;;15.22;60.05;101783.00;5072272;28;20431;-72
2023/10/15 05:12:51;;;;;;;0.28;0.28;;;;;;;15.18;59.29;101782.63;5072094;28;20025;-72
2023/10/15 05:15:18;;;;;;;0.28;0.28;;;;;;;15.54;58.94;101790.63;5076740;28;20422;-73
2023/10/15 05:17:46;;;;;;;0.35;0.35;;;;;;;15.62;58.67;101789.44;5072140;28;20131;-73
2023/10/15 05:20:13;;;;;;;0.30;0.30;;;;;;;15.52;59.38;101791.91;5071247;28;20492;-74
2023/10/15 05:22:38;;;;;;;0.30;0.30;;;;;;;15.66;58.64;101779.78;5054141;28;20044;-73
2023/10/15 05:25:04;;;;;;;0.40;0.40;;;;;;;15.38;59.33;101785.84;5072065;28;20048;-74
2023/10/15 05:27:29;;;;;;;0.45;0.45;;;;;;;15.01;60.63;101795.19;5072058;28;20059;-73
2023/10/15 05:29:55;;;;;;;0.30;0.30;;;;;;;15.36;59.68;101790.69;5072708;28;20770;-73
2023/10/15 05:32:20;;;;;;;0.50;0.50;;;;;;;15.57;59.03;101789.31;5072019;28;20036;-73
2023/10/15 05:34:45;;;;;;;0.30;0.30;;;;;;;15.34;59.96;101792.81;5071633;28;20048;-73
2023/10/15 05:37:11;;;;;;;0.20;0.20;;;;;;;15.34;59.81;101800.94;5072148;28;20036;-73
2023/10/15 05:39:36;;;;;;;0.40;0.40;;;;;;;15.56;59.11;101795.81;5072328;28;20537;-73
2023/10/15 05:42:06;;;;;;;0.30;0.30;;;;;;;14.95;61.68;101796.94;5073083;28;20108;-73
2023/10/15 05:44:31;;;;;;;0.30;0.30;;;;;;;14.54;63.03;101796.06;5053616;28;20194;-73
2023/10/15 05:46:57;;;;;;;0.20;0.20;;;;;;;14.81;61.90;101797.38;5072023;28;20123;-73
2023/10/15 05:49:22;;;;;;;0.30;0.30;;;;;;;15.15;61.23;101801.25;5071665;28;20101;-72
2023/10/15 05:51:47;;;;;;;0.40;0.40;;;;;;;15.04;61.26;101802.84;5071245;28;20063;-72
2023/10/15 05:54:13;;;;;;;0.28;0.28;;;;;;;15.00;61.35;101800.84;5071760;28;20031;-74
2023/10/15 05:56:38;;;;;;;0.20;0.20;;;;;;;15.54;59.39;101804.16;5071457;28;20044;-73
2023/10/15 05:59:05;;;;;;;0.20;0.20;;;;;;;15.79;58.65;101801.22;5071320;28;20082;-73
2023/10/15 06:01:31;;;;;;;0.20;0.20;;;;;;;15.93;58.41;101791.78;5071370;28;20084;-72
2023/10/15 06:03:57;;;;;;;0.30;0.30;;;;;;;16.21;57.42;101794.59;5070981;28;20044;-73
2023/10/15 06:06:22;;;;;;;0.28;0.28;;;;;;;16.22;57.69;101804.34;5070925;28;20056;-72
2023/10/15 06:08:49;;;;;;;0.30;0.30;;;;;;;16.38;56.70;101805.50;5071918;28;20098;-73
2023/10/15 06:11:14;;;;;;;0.30;0.30;;;;;;;16.29;56.60;101815.09;5056978;28;20530;-73
2023/10/15 06:13:40;;;;;;;0.40;0.40;;;;;;;16.19;57.80;101818.41;5083783;28;20295;-73
2023/10/15 06:16:05;;;;;;;0.30;0.30;;;;;;;16.40;57.60;101825.06;5070975;28;20127;-72
2023/10/15 06:18:31;;;;;;;0.20;0.20;;;;;;;16.26;58.60;101834.53;5071197;28;20083;-72
2023/10/15 06:20:57;;;;;;;0.30;0.30;;;;;;;16.50;57.77;101831.59;5071275;28;20113;-72
2023/10/15 06:23:22;;;;;;;0.20;0.20;;;;;;;15.44;59.84;101841.00;5070907;28;20028;-72
2023/10/15 06:25:48;;;;;;;0.70;0.38;;;;;;;15.47;60.38;101854.91;5070860;28;20040;-72
2023/10/15 06:28:16;;;;;;;0.30;0.30;;;;;;;14.36;63.86;101860.97;5070677;28;20044;-71
2023/10/15 06:30:43;;;;;;;0.30;0.30;;;;;;;13.73;66.92;101873.84;5069833;28;20040;-72
2023/10/15 06:33:08;;;;;;;0.45;0.45;;;;;;;14.95;63.30;101874.63;5071150;28;20468;-73
2023/10/15 06:35:34;;;;;;;0.30;0.30;;;;;;;13.99;66.37;101870.91;5069579;28;20039;-73
2023/10/15 06:37:59;;;;;;;0.30;0.30;;;;;;;13.95;67.35;101884.00;5069783;28;20484;-72
2023/10/15 06:40:26;;;;;;;0.50;0.50;;;;;;;13.34;67.81;101891.16;5051453;28;20116;-72
2023/10/15 06:42:52;;;;;;;0.40;0.40;;;;;;;13.57;68.15;101896.81;5069968;28;20032;-73
2023/10/15 06:45:21;;;;;;;0.40;0.40;;;;;;;14.00;66.35;101891.47;5070769;28;20024;-72
2023/10/15 06:47:47;;;;;;;0.20;0.20;;;;;;;14.39;64.66;101896.50;5069750;28;20487;-74
2023/10/15 06:50:14;;;;;;;0.10;0.10;;;;;;;14.03;66.13;101901.84;5070275;28;20037;-73
2023/10/15 06:52:41;;;;;;;0.20;0.20;;;;;;;12.90;68.37;101892.00;5069786;28;20098;-72
2023/10/15 06:55:08;;;;;;;0.20;0.20;;;;;;;13.75;65.05;101896.06;5070366;28;20038;-73
2023/10/15 06:57:38;;;;;;;0.30;0.30;;;;;;;13.34;66.97;101898.44;5069339;28;20515;-72
2023/10/15 07:00:08;;;;;;;0.40;0.40;;;;;;;13.20;67.08;101895.81;5070785;28;20028;-73
2023/10/15 07:02:33;;;;;;;0.30;0.30;;;;;;;13.07;66.11;101898.56;5069826;28;20028;-73
2023/10/15 07:05:00;;;;;;;0.40;0.40;;;;;;;14.70;62.81;101901.75;5069426;28;20381;-73
2023/10/15 07:07:26;;;;;;;0.40;0.40;;;;;;;14.82;62.51;101905.38;5071349;28;20024;-73
2023/10/15 07:09:52;;;;;;;0.25;0.25;;;;;;;14.29;63.98;101907.00;5069921;28;20500;-73
2023/10/15 07:12:18;;;;;;;0.40;0.40;;;;;;;15.04;62.25;101911.13;5067783;28;20028;-73
2023/10/15 07:14:43;;;;;;;0.38;0.38;;;;;;;15.91;58.66;101907.78;5069927;28;20167;-74
2023/10/15 07:17:09;;;;;;;0.20;0.20;;;;;;;14.77;62.45;101909.81;5070384;28;20344;-73
2023/10/15 07:19:35;;;;;;;0.40;0.40;;;;;;;14.78;62.28;101908.78;5069593;28;20057;-72
2023/10/15 07:22:01;;;;;;;0.35;0.35;;;;;;;14.77;63.19;101918.75;5068976;28;20147;-72
2023/10/15 07:24:27;;;;;;;0.32;0.32;;;;;;;14.64;63.97;101927.00;5069248;28;20020;-71
2023/10/15 07:26:52;;;;;;;0.25;0.25;;;;;;;13.71;66.13;101940.75;5070134;28;20048;-73
2023/10/15 07:29:18;;;;;;;0.38;0.38;;;;;;;14.37;64.29;101941.06;5066788;28;20481;-72
2023/10/15 07:31:44;;;;;;;0.30;0.30;;;;;;;15.58;59.80;101937.28;5069540;28;20040;-73
2023/10/15 07:34:10;;;;;;;0.20;0.20;;;;;;;15.95;58.80;101940.66;5069800;28;20156;-74
2023/10/15 07:36:36;;;;;;;0.30;0.30;;;;;;;15.09;59.07;101932.94;5069506;28;20393;-73
2023/10/15 07:39:06;;;;;;;0.30;0.30;;;;;;;15.08;61.16;101928.56;5051726;28;20150;-73
2023/10/15 07:41:32;;;;;;;0.40;0.40;;;;;;;14.92;58.88;101924.59;5052060;28;20036;-73
2023/10/15 07:43:57;;;;;;;0.45;0.45;;;;;;;15.26;58.66;101938.53;5069670;28;20377;-73
2023/10/15 07:46:22;;;;;;;0.60;0.60;;;;;;;15.78;57.67;101933.19;5068992;28;20040;-72
2023/10/15 07:48:48;;;;;;;0.30;0.30;;;;;;;15.16;59.70;101935.53;5069355;28;20105;-73
2023/10/15 07:51:14;;;;;;;0.40;0.40;;;;;;;14.81;60.35;101944.31;5068812;28;20396;-73
2023/10/15 07:53:40;;;;;;;0.47;0.47;;;;;;;15.27;60.17;101951.84;5069002;28;20048;-73
2023/10/15 07:56:06;;;;;;;0.30;0.30;;;;;;;15.36;59.32;101947.78;5068707;28;20569;-73
2023/10/15 07:58:31;;;;;;;0.20;0.20;;;;;;;16.15;55.81;101949.28;5069097;28;20473;-71
2023/10/15 08:00:59;;;;;;;0.20;0.20;;;;;;;16.47;56.91;101956.81;5068734;28;20132;-71
2023/10/15 08:03:26;;;;;;;0.30;0.30;;;;;;;15.69;58.17;101953.56;5069081;28;20051;-70
2023/10/15 08:05:51;;;;;;;0.25;0.25;;;;;;;15.68;59.83;101954.59;5069637;28;20033;-70
2023/10/15 08:08:17;;;;;;;0.25;0.25;;;;;;;14.98;61.75;101962.66;5069628;28;20093;-72
2023/10/15 08:10:42;;;;;;;0.50;0.50;;;;;;;15.88;59.49;101965.16;5069631;28;20040;-71
2023/10/15 08:13:08;;;;;;;0.47;0.47;;;;;;;16.57;57.87;101977.97;5069731;28;20029;-71
2023/10/15 08:15:34;;;;;;;0.40;0.40;;;;;;;16.00;60.09;101982.25;5069729;28;20106;-71
2023/10/15 08:18:01;;;;;;;0.20;0.20;;;;;;;14.89;61.66;101987.31;5070076;28;20044;-71
2023/10/15 08:20:28;;;;;;;0.20;0.20;;;;;;;14.39;62.73;101993.03;5069241;28;20036;-71
2023/10/15 08:22:53;;;;;;;0.43;0.43;;;;;;;15.58;61.47;102003.16;5070748;28;20103;-72
2023/10/15 08:25:22;;;;;;;0.32;0.32;;;;;;;15.80;59.32;101998.84;5068911;28;20464;-71
2023/10/15 08:27:47;;;;;;;0.30;0.30;;;;;;;13.82;66.75;102026.50;5068246;28;20045;-69
2023/10/15 08:30:14;;;;;;;0.45;0.45;;;;;;;14.78;64.46;102027.84;5068404;28;20029;-71
2023/10/15 08:32:40;;;;;;;0.20;0.20;;;;;;;14.26;64.73;102026.41;5067865;28;20050;-71
2023/10/15 08:35:08;;;;;;;0.30;0.30;;;;;;;15.18;61.82;102022.78;5071161;28;20096;-71
2023/10/15 08:37:35;;;;;;;0.30;0.30;;;;;;;14.12;65.00;102016.75;5066960;28;20404;-72
2023/10/15 08:40:06;;;;;;;0.20;0.20;;;;;;;15.18;60.65;102003.84;5068374;28;20124;-71
2023/10/15 08:42:37;;;;;;;0.30;0.30;;;;;;;14.77;61.66;102010.78;5067022;28;20047;-70
2023/10/15 08:45:04;;;;;;;;;;;;;;;15.47;61.65;102009.31;5069775;28;20099;-71
2023/10/15 08:47:33;;;;;;;0.20;0.20;;;;;;;15.14;61.14;102008.06;5066243;28;20292;-71
2023/10/15 08:49:59;;;;;;;0.28;0.28;;;;;;;15.61;59.39;102009.97;5068915;28;20128;-70
2023/10/15 08:52:27;;;;;;;0.30;0.30;;;;;;;16.09;57.52;102010.72;5068448;28;20400;-70
2023/10/15 08:54:54;;;;;;;0.35;0.35;;;;;;;15.75;57.89;102012.28;5070917;28;20094;-70
2023/10/15 08:57:19;;;;;;;0.30;0.30;;;;;;;15.83;57.56;102022.78;5072599;28;20077;-70
2023/10/15 08:59:46;;;;;;;0.40;0.40;;;;;;;15.75;59.14;102019.56;5074104;28;20441;-71
2023/10/15 09:02:15;;;;;;;0.30;0.30;;;;;;;15.41;58.80;102023.75;5072053;28;20078;-71
2023/10/15 09:04:41;;;;;;;0.28;0.28;;;;;;;16.35;57.73;102028.44;5071788;28;20045;-73
2023/10/15 09:07:07;;;;;;;0.20;0.20;;;;;;;15.86;60.15;102026.94;5071776;28;20124;-70
2023/10/15 09:09:33;;;;;;;0.30;0.30;;;;;;;15.75;55.64;102033.94;5072080;28;20032;-71
2023/10/15 09:12:01;;;;;;;0.40;0.40;;;;;;;16.47;56.83;102029.28;5053989;28;20039;-72
2023/10/15 09:14:42;;;;;;;0.30;0.30;;;;;;;15.14;61.25;102045.97;5071758;28;20123;-71
2023/10/15 09:17:10;;;;;;;0.40;0.40;;;;;;;16.72;56.15;102048.91;5071267;28;20032;-72
2023/10/15 09:19:39;;;;;;;0.40;0.40;;;;;;;17.01;56.88;102047.09;5053923;28;20556;-71
2023/10/15 09:22:14;;;;;;;0.30;0.30;;;;;;;16.37;57.16;102056.16;5070253;28;20040;-70
2023/10/15 09:24:40;;;;;;;0.20;0.20;;;;;;;15.23;60.18;102061.69;5071746;28;20029;-71
2023/10/15 09:27:05;;;;;;;0.40;0.40;;;;;;;15.18;57.05;102058.81;5072361;28;20039;-72
2023/10/15 09:29:31;;;;;;;0.32;0.32;;;;;;;15.01;58.99;102065.06;5072272;28;20028;-71
2023/10/15 09:32:01;;;;;;;0.40;0.40;;;;;;;14.46;61.42;102062.25;5071608;28;20054;-71
2023/10/15 09:34:27;;;;;;;0.30;0.30;;;;;;;14.15;62.68;102073.09;5071949;28;20186;-71
2023/10/15 09:36:53;;;;;;;0.30;0.30;;;;;;;14.11;63.09;102077.28;5071704;28;20820;-71
2023/10/15 09:39:18;;;;;;;0.20;0.20;;;;;;;13.45;64.72;102092.97;5072058;28;20024;-71
2023/10/15 09:41:44;;;;;;;0.20;0.20;;;;;;;14.20;63.22;102094.03;5071283;28;20098;-71
2023/10/15 09:44:15;;;;;;;0.28;0.28;;;;;;;14.36;64.75;102083.56;5053938;28;20101;-70
2023/10/15 09:46:44;;;;;;;0.38;0.38;;;;;;;15.58;59.65;102084.44;5069474;28;20151;-71
2023/10/15 09:49:12;;;;;;;0.30;0.30;;;;;;;15.28;60.17;102091.63;5071334;28;20047;-71
2023/10/15 09:51:38;;;;;;;0.40;0.40;;;;;;;15.32;59.80;102106.38;5070982;28;20499;-69
2023/10/15 09:54:05;;;;;;;0.30;0.30;;;;;;;15.05;59.71;102096.06;5071286;28;20050;-70
2023/10/15 09:56:34;;;;;;;0.25;0.25;;;;;;;15.34;59.15;102090.72;5075776;28;20024;-70
2023/10/15 09:59:02;;;;;;;0.20;0.20;;;;;;;15.29;59.23;102090.56;5052423;28;20063;-69
2023/10/15 10:01:30;;;;;;;0.30;0.30;;;;;;;15.57;59.01;102093.59;5070790;28;20579;-70
2023/10/15 10:04:40;;;;;;;0.20;0.20;;;;;;;16.02;56.89;102091.31;5070606;28;20071;-71
2023/10/15 10:07:25;;;;;;;0.20;0.20;;;;;;;14.91;59.49;102093.50;4987435;28;20129;-70
2023/10/15 10:10:18;;;;;;;0.30;0.30;;;;;;;15.20;58.68;102091.94;4988271;28;20044;-71
2023/10/15 10:13:16;;;;;;;0.28;0.28;;;;;;;15.29;58.00;102097.88;4988352;28;20433;-70
2023/10/15 10:15:57;;;;;;;0.20;0.20;;;;;;;15.75;60.68;102087.31;4953756;28;20188;-71
2023/10/15 10:18:27;;;;;;;0.38;0.38;;;;;;;16.13;57.44;102087.84;4948703;28;20130;-70
2023/10/15 10:20:55;;;;;;;0.30;0.30;;;;;;;16.62;55.45;102095.63;4950721;28;20055;-71
2023/10/15 10:23:22;;;;;;;0.30;0.30;;;;;;;16.24;58.13;102102.47;4951627;28;20043;-70
2023/10/15 10:25:50;;;;;;;0.30;0.30;;;;;;;15.97;57.68;102096.63;4951067;28;20078;-71
2023/10/15 10:28:22;;;;;;;0.22;0.22;;;;;;;16.21;57.87;102100.22;4950598;28;20538;-72
2023/10/15 10:30:59;;;;;;;0.30;0.30;;;;;;;17.09;52.84;102109.22;4949495;28;20530;-71
2023/10/15 10:33:46;;;;;;;0.20;0.20;;;;;;;16.04;54.89;102110.09;4948503;28;20050;-71
2023/10/15 10:36:13;;;;;;;0.20;0.20;;;;;;;16.42;55.58;102105.94;4950093;28;20495;-71
2023/10/15 10:38:39;;;;;;;0.13;0.13;;;;;;;15.76;55.43;102116.91;4948405;28;20133;-70
2023/10/15 10:41:12;;;;;;;0.20;0.20;;;;;;;16.06;53.75;102119.63;4948829;28;20192;-71
2023/10/15 10:43:40;;;;;;;0.30;0.30;;;;;;;15.51;53.74;102128.88;4978486;28;20506;-70
2023/10/15 10:46:06;;;;;;;0.30;0.30;;;;;;;15.63;55.15;102124.38;5006674;28;20446;-71
2023/10/15 10:48:37;;;;;;;0.20;0.20;;;;;;;16.45;53.46;102135.31;5009022;28;20038;-71
2023/10/15 10:51:18;;;;;;;0.30;0.30;;;;;;;15.82;54.58;102136.88;4997221;28;20030;-70
2023/10/15 10:53:56;;;;;;;0.20;0.20;;;;;;;15.58;57.65;102144.03;5068552;28;20040;-70
2023/10/15 10:56:44;;;;;;;0.30;0.30;;;;;;;16.03;58.65;102141.78;5068892;28;20408;-69
2023/10/15 10:59:11;;;;;;;0.30;0.30;;;;;;;17.34;56.21;102143.22;5067815;28;20036;-72
2023/10/15 11:01:39;;;;;;;0.30;0.30;;;;;;;17.33;57.17;102133.41;5072736;28;20060;-71
2023/10/15 11:04:09;;;;;;;0.30;0.30;;;;;;;16.82;56.15;102144.16;5081497;28;20040;-73
2023/10/15 11:06:39;;;;;;;0.20;0.20;;;;;;;16.36;54.88;102141.31;5076760;28;20040;-71
2023/10/15 11:09:22;;;;;;;0.20;0.20;;;;;;;16.02;56.92;102142.84;5080957;28;20155;-71
2023/10/15 11:11:52;;;;;;;0.22;0.22;;;;;;;15.97;58.01;102142.72;5071871;28;20507;-71
2023/10/15 11:14:23;;;;;;;0.20;0.20;;;;;;;15.33;57.85;102155.97;5069973;28;20036;-70
2023/10/15 11:16:50;;;;;;;0.28;0.28;;;;;;;14.53;59.38;102146.03;5068577;28;20046;-70
2023/10/15 11:19:24;;;;;;;0.30;0.30;;;;;;;14.16;62.20;102136.91;5070095;28;20090;-70
2023/10/15 11:21:51;;;;;;;0.30;0.30;;;;;;;15.35;59.32;102143.84;5077188;28;20040;-71
2023/10/15 11:24:17;;;;;;;0.30;0.30;;;;;;;13.31;64.55;102152.63;5090159;28;20077;-69
2023/10/15 11:26:44;;;;;;;0.20;0.20;;;;;;;14.47;60.09;102149.63;5078147;28;20376;-70
2023/10/15 11:29:11;;;;;;;0.40;0.40;;;;;;;14.64;60.66;102146.16;5067902;28;20048;-71
2023/10/15 11:31:37;;;;;;;0.30;0.30;;;;;;;15.06;58.60;102157.25;5068769;28;20044;-71
2023/10/15 11:34:04;;;;;;;0.13;0.13;;;;;;;15.33;58.31;102153.25;5069053;28;20111;-71
2023/10/15 11:36:35;;;;;;;0.20;0.20;;;;;;;16.00;57.64;102149.56;5068945;28;20086;-70
2023/10/15 11:39:08;;;;;;;0.20;0.20;;;;;;;16.49;57.38;102154.72;5069513;28;20020;-70
2023/10/15 11:41:34;;;;;;;0.30;0.30;;;;;;;15.27;58.82;102162.28;5068822;28;20029;-70
2023/10/15 11:44:04;;;;;;;0.55;0.55;;;;;;;15.63;60.10;102156.88;5068876;28;20324;-71
2023/10/15 11:46:30;;;;;;;0.30;0.30;;;;;;;15.92;59.90;102160.72;5069211;28;20103;-71
2023/10/15 11:49:01;;;;;;;0.30;0.30;;;;;;;16.35;59.79;102151.34;5074749;28;20503;-71